createdAt,value
2024-02-07T00:01:05.235Z,0.70
2024-02-07T00:03:32.127Z,0.60
2024-02-07T00:05:58.920Z,1.17
2024-02-07T00:08:25.925Z,0.82
2024-02-07T00:10:52.861Z,0.80
2024-02-07T00:13:20.050Z,1.02
2024-02-07T00:15:46.647Z,0.80
2024-02-07T00:18:13.492Z,0.88
2024-02-07T00:20:40.338Z,0.52
2024-02-07T00:23:08.639Z,1.00
2024-02-07T00:25:36.013Z,1.45
2024-02-07T00:28:02.851Z,0.82
2024-02-07T00:30:34.461Z,1.40
2024-02-07T00:33:07.029Z,0.75
2024-02-07T00:35:33.826Z,1.60
2024-02-07T00:38:00.893Z,0.88
2024-02-07T00:40:28.378Z,1.35
2024-02-07T00:42:55.826Z,0.95
2024-02-07T00:45:23.115Z,0.95
2024-02-07T00:47:50.046Z,1.15
2024-02-07T00:50:17.074Z,0.80
2024-02-07T00:52:43.799Z,2.03
2024-02-07T00:55:12.032Z,1.35
2024-02-07T00:57:40.077Z,1.20
2024-02-07T01:00:07.405Z,1.02
2024-02-07T01:02:34.329Z,0.98
2024-02-07T01:05:01.903Z,1.55
2024-02-07T01:07:28.747Z,1.30
2024-02-07T01:09:55.358Z,0.98
2024-02-07T01:12:22.577Z,0.90
2024-02-07T01:14:49.801Z,0.80
2024-02-07T01:17:16.430Z,1.13
2024-02-07T01:19:43.179Z,1.20
2024-02-07T01:22:09.861Z,0.98
2024-02-07T01:24:36.686Z,0.95
2024-02-07T01:27:05.481Z,1.23
2024-02-07T01:29:35.171Z,1.17
2024-02-07T01:32:01.828Z,0.77
2024-02-07T01:34:28.846Z,1.42
2024-02-07T01:36:55.891Z,0.98
2024-02-07T01:39:23.958Z,1.80
2024-02-07T01:42:01.083Z,2.17
2024-02-07T01:44:30.216Z,1.30
2024-02-07T01:47:15.012Z,1.13
2024-02-07T01:49:52.270Z,1.15
2024-02-07T01:52:22.250Z,1.58
2024-02-07T01:54:49.452Z,1.85
2024-02-07T01:57:16.205Z,0.90
2024-02-07T01:59:43.542Z,1.58
2024-02-07T02:02:10.815Z,1.25
2024-02-07T02:04:38.617Z,1.30
2024-02-07T02:07:05.439Z,2.10
2024-02-07T02:09:32.676Z,1.33
2024-02-07T02:12:01.909Z,1.70
2024-02-07T02:14:29.743Z,1.42
2024-02-07T02:16:57.197Z,1.17
2024-02-07T02:19:24.141Z,1.60
2024-02-07T02:22:17.007Z,2.05
2024-02-07T02:24:50.107Z,1.20
2024-02-07T02:27:34.844Z,1.83
2024-02-07T02:30:10.659Z,1.60
2024-02-07T02:32:40.850Z,1.80
2024-02-07T02:35:09.805Z,2.60
2024-02-07T02:37:37.071Z,1.48
2024-02-07T02:40:07.772Z,1.52
2024-02-07T02:42:35.355Z,1.77
2024-02-07T02:45:03.139Z,1.45
2024-02-07T02:47:32.973Z,1.52
2024-02-07T02:50:02.142Z,1.52
2024-02-07T02:52:30.038Z,1.80
2024-02-07T02:54:58.125Z,1.70
2024-02-07T02:57:25.648Z,1.35
2024-02-07T02:59:52.954Z,1.50
2024-02-07T03:02:21.776Z,1.88
2024-02-07T03:04:51.178Z,1.30
2024-02-07T03:07:36.766Z,2.28
2024-02-07T03:10:07.030Z,2.08
2024-02-07T03:12:33.658Z,1.38
2024-02-07T03:15:00.597Z,1.95
2024-02-07T03:17:27.455Z,1.73
2024-02-07T03:19:54.174Z,2.28
2024-02-07T03:22:20.962Z,1.30
2024-02-07T03:24:48.260Z,1.75
2024-02-07T03:27:15.263Z,1.75
2024-02-07T03:29:42.278Z,1.92
2024-02-07T03:32:08.989Z,1.67
2024-02-07T03:34:38.179Z,1.63
2024-02-07T03:37:06.278Z,1.98
2024-02-07T03:39:33.587Z,1.50
2024-02-07T03:42:01.996Z,2.28
2024-02-07T03:44:29.459Z,1.95
2024-02-07T03:46:56.262Z,1.80
2024-02-07T03:49:23.008Z,2.63
2024-02-07T03:51:49.879Z,2.20
2024-02-07T03:54:16.545Z,1.77
2024-02-07T03:56:43.235Z,2.65
2024-02-07T03:59:09.994Z,2.20
2024-02-07T04:01:37.306Z,1.90
2024-02-07T04:04:09.458Z,1.65
2024-02-07T04:06:37.013Z,2.30
2024-02-07T04:09:07.569Z,2.63
2024-02-07T04:11:34.654Z,3.05
2024-02-07T04:14:01.340Z,1.85
2024-02-07T04:16:47.255Z,1.85
2024-02-07T04:19:32.476Z,1.88
2024-02-07T04:22:17.782Z,1.75
2024-02-07T04:25:03.091Z,1.73
2024-02-07T04:27:48.549Z,1.58
2024-02-07T04:30:34.097Z,3.15
2024-02-07T04:33:19.637Z,2.47
2024-02-07T04:36:05.340Z,1.60
2024-02-07T04:38:51.411Z,2.67
2024-02-07T04:41:36.931Z,1.98
2024-02-07T04:44:22.311Z,2.58
2024-02-07T04:47:08.118Z,1.63
2024-02-07T04:49:53.819Z,1.90
2024-02-07T04:52:39.069Z,1.83
2024-02-07T04:55:24.714Z,1.75
2024-02-07T04:58:10.161Z,1.83
2024-02-07T05:00:55.571Z,1.80
2024-02-07T05:03:41.119Z,2.30
2024-02-07T05:06:26.621Z,1.73
2024-02-07T05:09:11.959Z,1.80
2024-02-07T05:11:57.672Z,2.72
2024-02-07T05:14:43.192Z,2.63
2024-02-07T05:17:09.789Z,2.33
2024-02-07T05:19:37.341Z,2.17
2024-02-07T05:22:04.347Z,2.00
2024-02-07T05:24:31.076Z,2.88
2024-02-07T05:26:57.941Z,2.47
2024-02-07T05:29:25.489Z,2.13
2024-02-07T05:31:54.941Z,2.05
2024-02-07T05:34:22.462Z,2.30
2024-02-07T05:36:50.258Z,2.30
2024-02-07T05:39:17.128Z,2.65
2024-02-07T05:41:47.219Z,2.17
2024-02-07T05:44:14.204Z,2.72
2024-02-07T05:46:41.749Z,2.65
2024-02-07T05:49:08.472Z,1.75
2024-02-07T05:51:35.906Z,2.15
2024-02-07T05:54:02.569Z,2.45
2024-02-07T05:56:29.674Z,1.90
2024-02-07T05:58:56.452Z,2.13
2024-02-07T06:01:23.664Z,2.38
2024-02-07T06:03:54.395Z,2.20
2024-02-07T06:06:22.088Z,2.15
2024-02-07T06:08:50.296Z,3.33
2024-02-07T06:11:17.322Z,2.65
2024-02-07T06:13:45.044Z,2.63
2024-02-07T06:16:11.841Z,2.65
2024-02-07T06:18:38.756Z,2.13
2024-02-07T06:21:05.648Z,2.92
2024-02-07T06:23:32.302Z,3.05
2024-02-07T06:25:58.981Z,1.80
2024-02-07T06:28:25.811Z,2.90
2024-02-07T06:30:52.458Z,1.98
2024-02-07T06:33:19.245Z,2.22
2024-02-07T06:35:46.028Z,1.75
2024-02-07T06:38:12.671Z,2.58
2024-02-07T06:40:39.284Z,2.28
2024-02-07T06:43:06.167Z,2.38
2024-02-07T06:45:32.807Z,2.00
2024-02-07T06:47:59.552Z,2.03
2024-02-07T06:50:26.360Z,1.65
2024-02-07T06:52:53.022Z,1.42
2024-02-07T06:55:20.318Z,1.67
2024-02-07T06:57:47.081Z,2.58
2024-02-07T07:00:14.442Z,2.30
2024-02-07T07:02:41.105Z,2.28
2024-02-07T07:05:26.078Z,2.83
2024-02-07T07:07:52.822Z,1.92
2024-02-07T07:10:19.904Z,1.77
2024-02-07T07:12:47.269Z,3.15
2024-02-07T07:15:22.769Z,1.92
2024-02-07T07:17:57.217Z,1.92
2024-02-07T07:20:24.126Z,1.85
2024-02-07T07:22:59.333Z,1.50
2024-02-07T07:25:34.607Z,1.83
2024-02-07T07:28:01.249Z,2.53
2024-02-07T07:30:27.916Z,2.17
2024-02-07T07:32:55.209Z,2.10
2024-02-07T07:35:22.357Z,2.80
2024-02-07T07:37:50.225Z,1.58
2024-02-07T07:40:17.048Z,1.83
2024-02-07T07:42:43.697Z,2.78
2024-02-07T07:45:10.405Z,1.90
2024-02-07T07:47:39.875Z,2.90
2024-02-07T07:50:08.827Z,2.40
2024-02-07T07:52:35.967Z,1.95
2024-02-07T07:55:02.600Z,2.17
2024-02-07T07:57:29.732Z,2.00
2024-02-07T07:59:56.381Z,1.88
2024-02-07T08:02:23.038Z,1.75
2024-02-07T08:04:50.413Z,1.80
2024-02-07T08:07:17.430Z,2.85
2024-02-07T08:09:44.218Z,1.70
2024-02-07T08:12:11.005Z,1.73
2024-02-07T08:14:37.610Z,2.67
2024-02-07T08:17:04.479Z,2.22
2024-02-07T08:19:31.215Z,1.42
2024-02-07T08:21:57.915Z,1.85
2024-02-07T08:24:25.616Z,1.85
2024-02-07T08:26:52.247Z,2.15
2024-02-07T08:29:18.973Z,2.28
2024-02-07T08:31:45.623Z,3.50
2024-02-07T08:34:13.930Z,1.60
2024-02-07T08:36:40.893Z,1.95
2024-02-07T08:39:07.576Z,2.42
2024-02-07T08:41:34.151Z,2.05
2024-02-07T08:44:01.169Z,1.27
2024-02-07T08:46:27.867Z,2.10
2024-02-07T08:48:54.554Z,2.65
2024-02-07T08:51:21.164Z,2.05
2024-02-07T08:53:48.665Z,1.80
2024-02-07T08:56:15.311Z,1.90
2024-02-07T08:58:42.059Z,2.03
2024-02-07T09:01:11.739Z,1.92
2024-02-07T09:03:38.489Z,1.58
2024-02-07T09:06:05.404Z,1.95
2024-02-07T09:08:32.144Z,1.77
2024-02-07T09:10:59.961Z,1.75
2024-02-07T09:13:26.693Z,1.58
2024-02-07T09:15:55.484Z,1.52
2024-02-07T09:18:23.804Z,1.88
2024-02-07T09:20:50.678Z,1.48
2024-02-07T09:23:17.262Z,1.85
2024-02-07T09:25:43.976Z,1.90
2024-02-07T09:28:10.703Z,1.70
2024-02-07T09:30:37.363Z,1.23
2024-02-07T09:33:04.277Z,2.13
2024-02-07T09:35:31.138Z,1.88
2024-02-07T09:37:58.034Z,1.70
2024-02-07T09:40:24.987Z,2.40
2024-02-07T09:42:52.838Z,2.60
2024-02-07T09:45:20.255Z,1.20
2024-02-07T09:50:28.639Z,1.75
2024-02-07T09:52:57.719Z,1.10
2024-02-07T09:55:25.038Z,1.95
2024-02-07T09:57:53.044Z,1.40
2024-02-07T10:00:19.903Z,1.75
2024-02-07T10:02:50.251Z,1.55
2024-02-07T10:05:21.001Z,1.63
2024-02-07T10:07:53.756Z,1.58
2024-02-07T10:10:21.285Z,1.50
2024-02-07T10:12:48.728Z,1.67
2024-02-07T10:15:15.840Z,1.52
2024-02-07T10:17:42.544Z,1.30
2024-02-07T10:20:13.061Z,1.17
2024-02-07T10:22:41.054Z,1.42
2024-02-07T10:25:15.950Z,1.05
2024-02-07T10:27:44.084Z,1.17
2024-02-07T10:30:12.923Z,1.67
2024-02-07T10:32:40.073Z,1.25
2024-02-07T10:35:11.722Z,1.20
2024-02-07T10:37:42.629Z,1.40
2024-02-07T10:40:11.236Z,0.93
2024-02-07T10:42:40.218Z,1.05
2024-02-07T10:45:11.451Z,1.33
2024-02-07T10:47:39.226Z,1.65
2024-02-07T10:50:09.725Z,0.93
2024-02-07T10:52:41.838Z,1.77
2024-02-07T10:55:12.055Z,1.20
2024-02-07T10:57:39.976Z,1.10
2024-02-07T11:00:08.498Z,1.50
2024-02-07T11:02:35.777Z,2.13
2024-02-07T11:05:03.133Z,1.35
2024-02-07T11:07:30.599Z,1.75
2024-02-07T11:09:58.378Z,1.33
2024-02-07T11:12:26.184Z,1.20
2024-02-07T11:14:53.143Z,1.45
2024-02-07T11:17:19.923Z,1.40
2024-02-07T11:19:48.113Z,1.50
2024-02-07T11:22:41.278Z,1.20
2024-02-07T11:25:11.560Z,1.95
2024-02-07T11:27:41.633Z,1.60
2024-02-07T11:30:12.452Z,1.23
2024-02-07T11:32:42.531Z,0.93
2024-02-07T11:35:11.057Z,1.40
2024-02-07T11:37:39.508Z,1.98
2024-02-07T11:40:08.048Z,1.80
2024-02-07T11:42:41.848Z,1.80
2024-02-07T11:45:16.910Z,1.48
2024-02-07T11:47:46.570Z,1.70
2024-02-07T11:50:17.706Z,1.83
2024-02-07T11:52:46.473Z,1.10
2024-02-07T11:55:18.430Z,1.48
2024-02-07T11:57:57.095Z,1.58
2024-02-07T12:00:23.991Z,2.08
2024-02-07T12:02:58.101Z,1.75
2024-02-07T12:05:25.728Z,1.80
2024-02-07T12:07:55.748Z,1.52
2024-02-07T12:10:22.469Z,1.55
2024-02-07T12:12:51.507Z,1.10
2024-02-07T12:15:18.281Z,1.65
2024-02-07T12:17:45.057Z,1.45
2024-02-07T12:20:14.607Z,1.10
2024-02-07T12:22:41.563Z,1.27
2024-02-07T12:25:16.969Z,1.20
2024-02-07T12:27:45.381Z,1.20
2024-02-07T12:30:12.427Z,1.05
2024-02-07T12:32:40.303Z,1.10
2024-02-07T12:35:08.095Z,1.40
2024-02-07T12:37:38.026Z,1.52
2024-02-07T12:40:12.558Z,1.40
2024-02-07T12:42:51.025Z,0.90
2024-02-07T12:45:17.854Z,0.80
2024-02-07T12:47:45.017Z,1.00
2024-02-07T12:50:12.148Z,1.05
2024-02-07T12:52:39.347Z,1.17
2024-02-07T12:55:07.217Z,1.02
2024-02-07T12:57:33.942Z,0.98
2024-02-07T13:00:10.881Z,1.17
2024-02-07T13:02:45.769Z,0.80
2024-02-07T13:05:12.669Z,0.68
2024-02-07T13:07:39.629Z,1.27
2024-02-07T13:10:07.095Z,1.50
2024-02-07T13:12:34.184Z,1.50
2024-02-07T13:15:02.484Z,1.10
2024-02-07T13:17:29.125Z,1.20
2024-02-07T13:19:55.847Z,1.25
2024-02-07T13:22:22.931Z,1.50
2024-02-07T13:24:49.788Z,1.13
2024-02-07T13:27:16.423Z,1.33
2024-02-07T13:29:45.658Z,1.10
2024-02-07T13:32:14.690Z,1.35
2024-02-07T13:34:46.461Z,1.13
2024-02-07T13:37:13.260Z,0.90
2024-02-07T13:39:40.059Z,1.23
2024-02-07T13:42:07.117Z,1.13
2024-02-07T13:44:33.867Z,1.42
2024-02-07T13:47:02.532Z,1.42
2024-02-07T13:49:29.661Z,1.20
2024-02-07T13:51:56.948Z,1.10
2024-02-07T13:54:23.564Z,1.33
2024-02-07T13:56:52.651Z,0.80
2024-02-07T13:59:19.300Z,0.88
2024-02-07T14:01:46.076Z,1.35
2024-02-07T14:04:12.847Z,0.95
2024-02-07T14:06:39.591Z,1.17
2024-02-07T14:09:06.282Z,0.90
2024-02-07T14:11:33.224Z,1.40
2024-02-07T14:14:00.056Z,1.33
2024-02-07T14:16:26.828Z,1.40
2024-02-07T14:18:53.503Z,1.17
2024-02-07T14:21:20.101Z,1.63
2024-02-07T14:23:46.757Z,1.13
2024-02-07T14:26:13.575Z,1.23
2024-02-07T14:28:40.272Z,1.40
2024-02-07T14:31:06.913Z,1.30
2024-02-07T14:33:48.050Z,1.30
2024-02-07T14:36:14.789Z,1.73
2024-02-07T14:38:41.401Z,1.20
2024-02-07T14:41:08.198Z,1.38
2024-02-07T14:43:35.133Z,1.50
2024-02-07T14:46:01.848Z,1.42
2024-02-07T14:48:29.072Z,1.40
2024-02-07T14:50:55.952Z,1.50
2024-02-07T14:53:23.013Z,1.33
2024-02-07T14:55:49.836Z,1.10
2024-02-07T14:58:16.581Z,1.13
2024-02-07T15:00:43.214Z,1.10
2024-02-07T15:03:12.296Z,1.25
2024-02-07T15:05:39.244Z,1.40
2024-02-07T15:08:06.795Z,1.95
2024-02-07T15:10:33.652Z,1.80
2024-02-07T15:13:00.939Z,2.00
2024-02-07T15:15:27.718Z,1.70
2024-02-07T15:17:54.352Z,1.67
2024-02-07T15:20:21.011Z,1.50
2024-02-07T15:22:47.648Z,1.92
2024-02-07T15:25:14.357Z,1.15
2024-02-07T15:27:43.653Z,1.60
2024-02-07T15:30:12.415Z,1.50
2024-02-07T15:32:39.394Z,1.77
2024-02-07T15:35:08.904Z,1.80
2024-02-07T15:37:35.890Z,1.40
2024-02-07T15:40:02.584Z,1.63
2024-02-07T15:42:29.219Z,1.98
2024-02-07T15:44:56.238Z,2.10
2024-02-07T15:47:23.434Z,2.63
2024-02-07T15:49:50.373Z,2.00
2024-02-07T15:52:17.227Z,2.03
2024-02-07T15:54:43.834Z,2.25
2024-02-07T15:57:10.469Z,2.33
2024-02-07T15:59:37.036Z,2.38
2024-02-07T16:02:03.995Z,2.50
2024-02-07T16:04:30.710Z,2.40
2024-02-07T16:06:57.604Z,2.35
2024-02-07T16:09:27.942Z,1.60
2024-02-07T16:11:54.620Z,1.58
2024-02-07T16:14:22.528Z,1.95
2024-02-07T16:16:49.729Z,1.67
2024-02-07T16:19:16.728Z,4.25
2024-02-07T16:21:43.505Z,9.20
2024-02-07T16:24:10.433Z,6.20
2024-02-07T16:26:37.017Z,4.57
2024-02-07T16:29:04.339Z,5.70
2024-02-07T16:31:31.182Z,5.47
2024-02-07T16:33:57.969Z,4.07
2024-02-07T16:36:24.717Z,3.53
2024-02-07T16:38:51.373Z,3.33
2024-02-07T16:41:19.242Z,2.67
2024-02-07T16:43:48.694Z,2.38
2024-02-07T16:46:15.790Z,3.97
2024-02-07T16:48:42.435Z,4.28
2024-02-07T16:51:09.103Z,3.50
2024-02-07T16:53:35.800Z,3.25
2024-02-07T16:56:03.200Z,3.30
2024-02-07T16:58:32.165Z,3.00
2024-02-07T17:00:59.097Z,4.05
2024-02-07T17:03:25.796Z,4.60
2024-02-07T17:05:52.575Z,6.88
2024-02-07T17:08:19.274Z,11.20
2024-02-07T17:10:45.972Z,10.98
2024-02-07T17:13:14.793Z,9.63
2024-02-07T17:15:41.441Z,8.68
2024-02-07T17:18:08.215Z,4.30
2024-02-07T17:20:35.080Z,5.35
2024-02-07T17:23:01.740Z,5.65
2024-02-07T17:25:28.701Z,5.30
2024-02-07T17:27:55.631Z,4.73
2024-02-07T17:30:28.992Z,4.47
2024-02-07T17:33:03.118Z,6.17
2024-02-07T17:35:29.937Z,5.37
2024-02-07T17:37:56.655Z,6.00
2024-02-07T17:40:23.388Z,6.87
2024-02-07T17:42:51.028Z,7.40
2024-02-07T17:45:18.672Z,8.48
2024-02-07T17:47:45.897Z,9.52
2024-02-07T17:50:12.674Z,11.20
2024-02-07T17:52:39.371Z,14.83
2024-02-07T17:55:06.502Z,14.43
2024-02-07T17:57:33.121Z,12.23
2024-02-07T17:59:59.828Z,12.77
2024-02-07T18:02:26.568Z,14.87
2024-02-07T18:04:53.577Z,16.17
2024-02-07T18:07:20.349Z,15.43
2024-02-07T18:09:47.115Z,16.30
2024-02-07T18:12:13.727Z,13.63
2024-02-07T18:14:43.326Z,12.93
2024-02-07T18:17:10.115Z,9.10
2024-02-07T18:19:43.169Z,10.10
2024-02-07T18:22:10.881Z,11.37
2024-02-07T18:24:37.956Z,9.00
2024-02-07T18:27:05.716Z,8.03
2024-02-07T18:29:32.678Z,8.83
2024-02-07T18:31:59.976Z,8.07
2024-02-07T18:34:27.305Z,8.33
2024-02-07T18:36:54.503Z,8.87
2024-02-07T18:39:22.228Z,10.33
2024-02-07T18:41:53.009Z,11.67
2024-02-07T18:44:20.228Z,12.77
2024-02-07T18:46:46.931Z,14.30
2024-02-07T18:49:13.738Z,15.03
2024-02-07T18:51:40.984Z,15.33
2024-02-07T18:54:07.674Z,14.57
2024-02-07T18:56:34.321Z,18.80
2024-02-07T18:59:02.347Z,15.10
2024-02-07T19:01:29.218Z,13.73
2024-02-07T19:03:56.144Z,13.83
2024-02-07T19:06:23.028Z,13.63
2024-02-07T19:08:52.685Z,13.60
2024-02-07T19:11:19.413Z,15.83
2024-02-07T19:13:46.145Z,16.57
2024-02-07T19:16:12.769Z,17.50
2024-02-07T19:18:39.778Z,15.50
2024-02-07T19:21:06.560Z,11.40
2024-02-07T19:23:33.222Z,12.30
2024-02-07T19:26:02.854Z,11.67
2024-02-07T19:28:29.533Z,11.50
2024-02-07T19:30:56.365Z,10.70
2024-02-07T19:33:23.048Z,11.40
2024-02-07T19:35:49.843Z,16.60
2024-02-07T19:38:19.400Z,23.63
2024-02-07T19:40:46.642Z,19.90
2024-02-07T19:43:13.305Z,18.80
2024-02-07T19:45:40.785Z,17.03
2024-02-07T19:48:08.048Z,14.30
2024-02-07T19:50:34.862Z,14.10
2024-02-07T19:53:01.869Z,15.67
2024-02-07T19:55:28.655Z,15.20
2024-02-07T19:57:55.352Z,14.57
2024-02-07T20:00:22.293Z,16.08
2024-02-07T20:02:50.607Z,14.23
2024-02-07T20:05:19.551Z,12.83
2024-02-07T20:07:46.706Z,11.97
2024-02-07T20:10:13.487Z,12.30
2024-02-07T20:12:40.562Z,9.90
2024-02-07T20:15:07.783Z,9.57
2024-02-07T20:17:34.471Z,9.30
2024-02-07T20:20:01.243Z,8.23
2024-02-07T20:22:28.030Z,8.37
2024-02-07T20:24:54.666Z,6.57
2024-02-07T20:27:21.537Z,6.60
2024-02-07T20:29:48.167Z,6.43
2024-02-07T20:32:14.788Z,6.67
2024-02-07T20:34:42.203Z,6.93
2024-02-07T20:37:08.969Z,6.73
2024-02-07T20:39:35.726Z,6.80
2024-02-07T20:42:02.351Z,6.60
2024-02-07T20:44:29.298Z,7.20
2024-02-07T20:46:56.189Z,7.63
2024-02-07T20:49:22.975Z,8.47
2024-02-07T20:51:50.132Z,7.77
2024-02-07T20:54:17.382Z,7.90
2024-02-07T20:56:44.125Z,7.50
2024-02-07T20:59:11.212Z,7.93
2024-02-07T21:01:38.114Z,8.10
2024-02-07T21:04:05.027Z,8.43
2024-02-07T21:06:31.777Z,7.97
2024-02-07T21:08:58.535Z,7.17
2024-02-07T21:11:25.536Z,7.60
2024-02-07T21:13:53.056Z,8.93
2024-02-07T21:16:19.807Z,8.07
2024-02-07T21:18:46.532Z,7.87
2024-02-07T21:21:16.487Z,8.93
2024-02-07T21:23:43.482Z,9.23
2024-02-07T21:26:11.509Z,8.80
2024-02-07T21:28:39.095Z,8.87
2024-02-07T21:31:08.614Z,7.87
2024-02-07T21:33:35.529Z,8.83
2024-02-07T21:36:02.498Z,7.37
2024-02-07T21:38:29.159Z,7.33
2024-02-07T21:40:56.222Z,7.80
2024-02-07T21:43:22.992Z,8.90
2024-02-07T21:45:49.792Z,7.37
2024-02-07T21:48:16.933Z,7.13
2024-02-07T21:50:43.671Z,7.10
2024-02-07T21:53:10.555Z,9.23
2024-02-07T21:55:37.445Z,9.30
2024-02-07T21:58:04.340Z,7.90
2024-02-07T22:00:31.049Z,9.30
2024-02-07T22:02:57.803Z,12.53
2024-02-07T22:05:24.673Z,10.50
2024-02-07T22:07:52.057Z,9.73
2024-02-07T22:10:21.775Z,9.43
2024-02-07T22:12:48.499Z,8.30
2024-02-07T22:15:15.305Z,7.50
2024-02-07T22:17:42.126Z,8.80
2024-02-07T22:20:10.113Z,7.37
2024-02-07T22:22:37.400Z,7.50
2024-02-07T22:25:07.102Z,7.50
2024-02-07T22:27:35.807Z,8.13
2024-02-07T22:30:09.646Z,8.37
2024-02-07T22:32:42.002Z,6.77
2024-02-07T22:35:15.134Z,5.70
2024-02-07T22:37:44.860Z,5.83
2024-02-07T22:40:12.662Z,5.77
2024-02-07T22:43:09.647Z,5.67
2024-02-07T22:45:37.793Z,4.73
2024-02-07T22:48:25.961Z,5.53
2024-02-07T22:51:04.933Z,5.17
2024-02-07T22:53:37.202Z,4.50
2024-02-07T22:56:13.120Z,4.03
2024-02-07T22:58:44.380Z,4.63
2024-02-07T23:01:32.558Z,4.13
2024-02-07T23:04:15.779Z,5.13
2024-02-07T23:06:51.024Z,4.50
2024-02-07T23:09:28.897Z,4.03
2024-02-07T23:12:16.610Z,4.23
2024-02-07T23:14:46.036Z,4.60
2024-02-07T23:17:21.530Z,4.13
2024-02-07T23:19:57.737Z,3.80
2024-02-07T23:25:22.214Z,4.80
2024-02-07T23:27:49.087Z,4.00
2024-02-07T23:30:16.010Z,4.20
2024-02-07T23:32:43.078Z,5.20
2024-02-07T23:35:09.950Z,4.53
2024-02-07T23:37:36.732Z,5.67
2024-02-07T23:40:06.223Z,6.53
2024-02-07T23:42:33.940Z,5.43
2024-02-07T23:45:01.139Z,6.20
2024-02-07T23:47:27.906Z,6.90
2024-02-07T23:49:54.853Z,6.40
2024-02-07T23:52:21.681Z,9.63
2024-02-07T23:54:50.384Z,5.90
2024-02-07T23:57:17.688Z,6.67
2024-02-07T23:59:44.383Z,6.20
